sensor_id;sensor_type;location;lat;lon;timestamp;temperature;humidity
6333;DHT22;3199;49.102;8.856;2022-07-29T00:00:37;21.70;90.90
6333;DHT22;3199;49.102;8.856;2022-07-29T00:03:02;21.60;91.20
6333;DHT22;3199;49.102;8.856;2022-07-29T00:05:28;21.60;91.70
6333;DHT22;3199;49.102;8.856;2022-07-29T00:07:54;21.60;92.20
6333;DHT22;3199;49.102;8.856;2022-07-29T00:10:19;21.50;92.60
6333;DHT22;3199;49.102;8.856;2022-07-29T00:12:45;21.50;93.10
6333;DHT22;3199;49.102;8.856;2022-07-29T00:15:11;21.40;93.60
6333;DHT22;3199;49.102;8.856;2022-07-29T00:17:36;21.30;94.30
6333;DHT22;3199;49.102;8.856;2022-07-29T00:20:03;21.20;94.80
6333;DHT22;3199;49.102;8.856;2022-07-29T00:22:29;21.10;95.30
6333;DHT22;3199;49.102;8.856;2022-07-29T00:24:54;21.00;95.90
6333;DHT22;3199;49.102;8.856;2022-07-29T00:27:20;21.00;96.40
6333;DHT22;3199;49.102;8.856;2022-07-29T00:29:45;21.00;96.90
6333;DHT22;3199;49.102;8.856;2022-07-29T00:32:11;20.90;97.40
6333;DHT22;3199;49.102;8.856;2022-07-29T00:34:36;20.90;97.80
6333;DHT22;3199;49.102;8.856;2022-07-29T00:37:20;20.80;98.20
6333;DHT22;3199;49.102;8.856;2022-07-29T00:39:46;20.80;98.70
6333;DHT22;3199;49.102;8.856;2022-07-29T00:42:12;20.80;98.80
6333;DHT22;3199;49.102;8.856;2022-07-29T00:44:40;20.80;99.20
6333;DHT22;3199;49.102;8.856;2022-07-29T00:47:08;20.70;99.40
6333;DHT22;3199;49.102;8.856;2022-07-29T00:49:34;20.70;99.80
6333;DHT22;3199;49.102;8.856;2022-07-29T00:52:03;20.70;99.90
6333;DHT22;3199;49.102;8.856;2022-07-29T00:54:29;20.70;99.90
6333;DHT22;3199;49.102;8.856;2022-07-29T00:56:57;20.60;99.90
6333;DHT22;3199;49.102;8.856;2022-07-29T00:59:23;20.60;99.90
6333;DHT22;3199;49.102;8.856;2022-07-29T01:01:49;20.50;99.90
6333;DHT22;3199;49.102;8.856;2022-07-29T01:04:14;20.40;99.90
6333;DHT22;3199;49.102;8.856;2022-07-29T01:06:40;20.40;99.90
6333;DHT22;3199;49.102;8.856;2022-07-29T01:09:06;20.30;99.90
6333;DHT22;3199;49.102;8.856;2022-07-29T01:11:32;20.30;99.90
6333;DHT22;3199;49.102;8.856;2022-07-29T01:13:59;20.20;99.90
6333;DHT22;3199;49.102;8.856;2022-07-29T01:16:32;20.20;99.90
6333;DHT22;3199;49.102;8.856;2022-07-29T01:19:07;20.20;99.90
6333;DHT22;3199;49.102;8.856;2022-07-29T01:21:51;20.10;99.90
6333;DHT22;3199;49.102;8.856;2022-07-29T01:24:33;20.10;99.90
6333;DHT22;3199;49.102;8.856;2022-07-29T01:29:44;20.10;99.90
6333;DHT22;3199;49.102;8.856;2022-07-29T01:32:12;20.10;99.90
6333;DHT22;3199;49.102;8.856;2022-07-29T01:34:48;20.10;99.90
6333;DHT22;3199;49.102;8.856;2022-07-29T01:40:04;20.00;99.90
6333;DHT22;3199;49.102;8.856;2022-07-29T01:42:39;20.00;99.90
6333;DHT22;3199;49.102;8.856;2022-07-29T01:47:50;19.90;99.90
6333;DHT22;3199;49.102;8.856;2022-07-29T01:50:19;19.90;99.90
6333;DHT22;3199;49.102;8.856;2022-07-29T01:53:06;19.90;99.90
6333;DHT22;3199;49.102;8.856;2022-07-29T01:55:36;19.80;99.90
6333;DHT22;3199;49.102;8.856;2022-07-29T01:58:04;19.80;99.90
6333;DHT22;3199;49.102;8.856;2022-07-29T02:00:32;19.80;99.90
6333;DHT22;3199;49.102;8.856;2022-07-29T02:03:01;19.70;99.90
6333;DHT22;3199;49.102;8.856;2022-07-29T02:05:29;19.70;99.90
6333;DHT22;3199;49.102;8.856;2022-07-29T02:07:58;19.70;99.90
6333;DHT22;3199;49.102;8.856;2022-07-29T02:10:27;19.70;99.90
6333;DHT22;3199;49.102;8.856;2022-07-29T02:12:54;19.70;99.90
6333;DHT22;3199;49.102;8.856;2022-07-29T02:15:23;19.70;99.90
6333;DHT22;3199;49.102;8.856;2022-07-29T02:17:54;19.70;99.90
6333;DHT22;3199;49.102;8.856;2022-07-29T02:20:22;19.70;99.90
6333;DHT22;3199;49.102;8.856;2022-07-29T02:22:50;19.70;99.90
6333;DHT22;3199;49.102;8.856;2022-07-29T02:25:17;19.70;99.90
6333;DHT22;3199;49.102;8.856;2022-07-29T02:27:44;19.70;99.90
6333;DHT22;3199;49.102;8.856;2022-07-29T02:30:11;19.70;99.90
6333;DHT22;3199;49.102;8.856;2022-07-29T02:32:39;19.70;99.90
6333;DHT22;3199;49.102;8.856;2022-07-29T02:35:08;19.70;99.90
6333;DHT22;3199;49.102;8.856;2022-07-29T02:37:36;19.70;99.90
6333;DHT22;3199;49.102;8.856;2022-07-29T02:40:02;19.60;99.90
6333;DHT22;3199;49.102;8.856;2022-07-29T02:42:28;19.60;99.90
6333;DHT22;3199;49.102;8.856;2022-07-29T02:44:54;19.60;99.90
6333;DHT22;3199;49.102;8.856;2022-07-29T02:47:47;19.60;99.90
6333;DHT22;3199;49.102;8.856;2022-07-29T02:50:22;19.60;99.90
6333;DHT22;3199;49.102;8.856;2022-07-29T02:53:09;19.50;99.90
6333;DHT22;3199;49.102;8.856;2022-07-29T02:55:40;19.50;99.90
6333;DHT22;3199;49.102;8.856;2022-07-29T02:58:25;19.40;99.90
6333;DHT22;3199;49.102;8.856;2022-07-29T03:00:55;19.40;99.90
6333;DHT22;3199;49.102;8.856;2022-07-29T03:03:22;19.40;99.90
6333;DHT22;3199;49.102;8.856;2022-07-29T03:05:54;19.40;99.90
6333;DHT22;3199;49.102;8.856;2022-07-29T03:08:20;19.30;99.90
6333;DHT22;3199;49.102;8.856;2022-07-29T03:10:47;19.30;99.90
6333;DHT22;3199;49.102;8.856;2022-07-29T03:13:14;19.40;99.90
6333;DHT22;3199;49.102;8.856;2022-07-29T03:15:42;19.30;99.90
6333;DHT22;3199;49.102;8.856;2022-07-29T03:18:09;19.30;99.90
6333;DHT22;3199;49.102;8.856;2022-07-29T03:20:37;19.30;99.90
6333;DHT22;3199;49.102;8.856;2022-07-29T03:23:02;19.30;99.90
6333;DHT22;3199;49.102;8.856;2022-07-29T03:25:28;19.30;99.90
6333;DHT22;3199;49.102;8.856;2022-07-29T03:27:54;19.20;99.90
6333;DHT22;3199;49.102;8.856;2022-07-29T03:30:19;19.20;99.90
6333;DHT22;3199;49.102;8.856;2022-07-29T03:32:45;19.20;99.90
6333;DHT22;3199;49.102;8.856;2022-07-29T03:35:10;19.20;99.90
6333;DHT22;3199;49.102;8.856;2022-07-29T03:37:36;19.10;99.90
6333;DHT22;3199;49.102;8.856;2022-07-29T03:40:05;19.10;99.90
6333;DHT22;3199;49.102;8.856;2022-07-29T03:42:33;19.20;99.90
6333;DHT22;3199;49.102;8.856;2022-07-29T03:45:05;19.20;99.90
6333;DHT22;3199;49.102;8.856;2022-07-29T03:47:33;19.20;99.90
6333;DHT22;3199;49.102;8.856;2022-07-29T03:50:04;19.20;99.90
6333;DHT22;3199;49.102;8.856;2022-07-29T03:52:31;19.20;99.90
6333;DHT22;3199;49.102;8.856;2022-07-29T03:54:56;19.20;99.90
6333;DHT22;3199;49.102;8.856;2022-07-29T03:57:25;19.20;99.90
6333;DHT22;3199;49.102;8.856;2022-07-29T03:59:53;19.20;99.90
6333;DHT22;3199;49.102;8.856;2022-07-29T04:02:19;19.20;99.90
6333;DHT22;3199;49.102;8.856;2022-07-29T04:04:45;19.20;99.90
6333;DHT22;3199;49.102;8.856;2022-07-29T04:07:15;19.20;99.90
6333;DHT22;3199;49.102;8.856;2022-07-29T04:09:41;19.20;99.90
6333;DHT22;3199;49.102;8.856;2022-07-29T04:12:07;19.30;99.90
6333;DHT22;3199;49.102;8.856;2022-07-29T04:14:33;19.30;99.90
6333;DHT22;3199;49.102;8.856;2022-07-29T04:17:00;19.40;99.90
6333;DHT22;3199;49.102;8.856;2022-07-29T04:19:26;19.40;99.90
6333;DHT22;3199;49.102;8.856;2022-07-29T04:21:52;19.40;99.90
6333;DHT22;3199;49.102;8.856;2022-07-29T04:24:18;19.40;99.90
6333;DHT22;3199;49.102;8.856;2022-07-29T04:26:44;19.50;99.90
6333;DHT22;3199;49.102;8.856;2022-07-29T04:29:10;19.50;99.90
6333;DHT22;3199;49.102;8.856;2022-07-29T04:31:37;19.60;99.90
6333;DHT22;3199;49.102;8.856;2022-07-29T04:34:02;19.70;99.90
6333;DHT22;3199;49.102;8.856;2022-07-29T04:36:28;19.70;99.90
6333;DHT22;3199;49.102;8.856;2022-07-29T04:38:53;19.90;99.90
6333;DHT22;3199;49.102;8.856;2022-07-29T04:41:19;19.90;99.90
6333;DHT22;3199;49.102;8.856;2022-07-29T04:43:44;20.00;99.90
6333;DHT22;3199;49.102;8.856;2022-07-29T04:46:10;20.10;99.90
6333;DHT22;3199;49.102;8.856;2022-07-29T04:48:35;20.20;99.90
6333;DHT22;3199;49.102;8.856;2022-07-29T04:51:01;20.40;99.90
6333;DHT22;3199;49.102;8.856;2022-07-29T04:53:26;20.60;99.90
6333;DHT22;3199;49.102;8.856;2022-07-29T04:55:52;20.90;99.90
6333;DHT22;3199;49.102;8.856;2022-07-29T04:58:17;21.20;99.90
6333;DHT22;3199;49.102;8.856;2022-07-29T05:00:43;21.50;99.90
6333;DHT22;3199;49.102;8.856;2022-07-29T05:03:08;21.90;99.90
6333;DHT22;3199;49.102;8.856;2022-07-29T05:05:34;22.20;99.90
6333;DHT22;3199;49.102;8.856;2022-07-29T05:08:00;22.30;99.90
6333;DHT22;3199;49.102;8.856;2022-07-29T05:10:25;22.30;99.90
6333;DHT22;3199;49.102;8.856;2022-07-29T05:12:51;22.40;99.90
6333;DHT22;3199;49.102;8.856;2022-07-29T05:15:16;22.40;99.90
6333;DHT22;3199;49.102;8.856;2022-07-29T05:17:43;22.50;99.90
6333;DHT22;3199;49.102;8.856;2022-07-29T05:20:09;22.80;99.90
6333;DHT22;3199;49.102;8.856;2022-07-29T05:22:35;23.00;99.90
6333;DHT22;3199;49.102;8.856;2022-07-29T05:25:00;23.00;99.90
6333;DHT22;3199;49.102;8.856;2022-07-29T05:27:26;23.30;99.90
6333;DHT22;3199;49.102;8.856;2022-07-29T05:29:51;23.60;99.90
6333;DHT22;3199;49.102;8.856;2022-07-29T05:32:17;23.80;99.90
6333;DHT22;3199;49.102;8.856;2022-07-29T05:34:42;24.20;99.90
6333;DHT22;3199;49.102;8.856;2022-07-29T05:37:08;24.70;99.90
6333;DHT22;3199;49.102;8.856;2022-07-29T05:39:33;25.10;99.70
6333;DHT22;3199;49.102;8.856;2022-07-29T05:41:59;25.40;99.20
6333;DHT22;3199;49.102;8.856;2022-07-29T05:44:24;25.80;98.50
6333;DHT22;3199;49.102;8.856;2022-07-29T05:46:50;26.20;97.70
6333;DHT22;3199;49.102;8.856;2022-07-29T05:49:15;26.60;96.60
6333;DHT22;3199;49.102;8.856;2022-07-29T05:51:41;27.00;95.90
6333;DHT22;3199;49.102;8.856;2022-07-29T05:54:06;27.50;94.80
6333;DHT22;3199;49.102;8.856;2022-07-29T05:56:32;27.80;93.90
6333;DHT22;3199;49.102;8.856;2022-07-29T05:58:58;28.20;93.00
6333;DHT22;3199;49.102;8.856;2022-07-29T06:01:23;28.60;92.10
6333;DHT22;3199;49.102;8.856;2022-07-29T06:03:49;29.10;91.10
6333;DHT22;3199;49.102;8.856;2022-07-29T06:06:14;29.50;89.90
6333;DHT22;3199;49.102;8.856;2022-07-29T06:08:40;29.90;87.80
6333;DHT22;3199;49.102;8.856;2022-07-29T06:11:06;30.30;85.70
6333;DHT22;3199;49.102;8.856;2022-07-29T06:13:32;30.80;82.90
6333;DHT22;3199;49.102;8.856;2022-07-29T06:15:57;30.80;80.50
6333;DHT22;3199;49.102;8.856;2022-07-29T06:18:23;30.70;79.60
6333;DHT22;3199;49.102;8.856;2022-07-29T06:20:52;30.70;79.00
6333;DHT22;3199;49.102;8.856;2022-07-29T06:23:18;30.90;78.80
6333;DHT22;3199;49.102;8.856;2022-07-29T06:25:44;30.90;78.30
6333;DHT22;3199;49.102;8.856;2022-07-29T06:28:10;30.60;76.80
6333;DHT22;3199;49.102;8.856;2022-07-29T06:30:35;30.40;78.60
6333;DHT22;3199;49.102;8.856;2022-07-29T06:33:01;30.40;76.50
6333;DHT22;3199;49.102;8.856;2022-07-29T06:35:27;30.00;77.20
6333;DHT22;3199;49.102;8.856;2022-07-29T06:37:53;29.70;77.90
6333;DHT22;3199;49.102;8.856;2022-07-29T06:40:19;29.20;79.00
6333;DHT22;3199;49.102;8.856;2022-07-29T06:43:03;28.50;80.40
6333;DHT22;3199;49.102;8.856;2022-07-29T06:45:29;27.70;83.40
6333;DHT22;3199;49.102;8.856;2022-07-29T06:47:54;27.50;85.60
6333;DHT22;3199;49.102;8.856;2022-07-29T06:50:20;27.90;86.30
6333;DHT22;3199;49.102;8.856;2022-07-29T06:52:47;28.00;83.90
6333;DHT22;3199;49.102;8.856;2022-07-29T06:55:13;28.00;83.70
6333;DHT22;3199;49.102;8.856;2022-07-29T06:57:39;28.00;83.00
6333;DHT22;3199;49.102;8.856;2022-07-29T07:00:05;27.80;82.30
6333;DHT22;3199;49.102;8.856;2022-07-29T07:02:31;27.30;83.40
6333;DHT22;3199;49.102;8.856;2022-07-29T07:04:57;27.10;83.70
6333;DHT22;3199;49.102;8.856;2022-07-29T07:07:24;26.80;83.50
6333;DHT22;3199;49.102;8.856;2022-07-29T07:09:49;26.80;81.80
6333;DHT22;3199;49.102;8.856;2022-07-29T07:12:15;27.30;81.70
6333;DHT22;3199;49.102;8.856;2022-07-29T07:14:40;28.20;79.60
6333;DHT22;3199;49.102;8.856;2022-07-29T07:17:06;28.60;77.50
6333;DHT22;3199;49.102;8.856;2022-07-29T07:19:32;28.80;76.30
6333;DHT22;3199;49.102;8.856;2022-07-29T07:21:58;29.10;75.80
6333;DHT22;3199;49.102;8.856;2022-07-29T07:24:23;29.70;74.50
6333;DHT22;3199;49.102;8.856;2022-07-29T07:26:49;30.20;69.70
6333;DHT22;3199;49.102;8.856;2022-07-29T07:29:14;30.60;67.30
6333;DHT22;3199;49.102;8.856;2022-07-29T07:31:40;30.50;65.10
6333;DHT22;3199;49.102;8.856;2022-07-29T07:34:05;30.40;64.80
6333;DHT22;3199;49.102;8.856;2022-07-29T07:36:31;29.90;64.80
6333;DHT22;3199;49.102;8.856;2022-07-29T07:38:56;29.70;65.70
6333;DHT22;3199;49.102;8.856;2022-07-29T07:41:22;30.30;64.80
6333;DHT22;3199;49.102;8.856;2022-07-29T07:43:48;30.80;63.60
6333;DHT22;3199;49.102;8.856;2022-07-29T07:46:14;30.40;62.60
6333;DHT22;3199;49.102;8.856;2022-07-29T07:48:39;30.00;63.20
6333;DHT22;3199;49.102;8.856;2022-07-29T07:51:05;29.70;62.70
6333;DHT22;3199;49.102;8.856;2022-07-29T07:53:32;29.20;63.50
6333;DHT22;3199;49.102;8.856;2022-07-29T07:55:58;29.10;64.90
6333;DHT22;3199;49.102;8.856;2022-07-29T07:58:23;29.20;64.90
6333;DHT22;3199;49.102;8.856;2022-07-29T08:00:49;29.50;65.30
6333;DHT22;3199;49.102;8.856;2022-07-29T08:03:15;29.70;63.80
6333;DHT22;3199;49.102;8.856;2022-07-29T08:05:40;29.20;63.80
6333;DHT22;3199;49.102;8.856;2022-07-29T08:08:06;28.70;65.60
6333;DHT22;3199;49.102;8.856;2022-07-29T08:10:33;28.40;66.30
6333;DHT22;3199;49.102;8.856;2022-07-29T08:13:18;28.40;67.10
6333;DHT22;3199;49.102;8.856;2022-07-29T08:15:44;28.40;66.90
6333;DHT22;3199;49.102;8.856;2022-07-29T08:18:12;28.70;66.10
6333;DHT22;3199;49.102;8.856;2022-07-29T08:20:38;28.80;65.20
6333;DHT22;3199;49.102;8.856;2022-07-29T08:23:05;28.90;65.60
6333;DHT22;3199;49.102;8.856;2022-07-29T08:25:32;28.90;65.30
6333;DHT22;3199;49.102;8.856;2022-07-29T08:27:58;28.80;65.50
6333;DHT22;3199;49.102;8.856;2022-07-29T08:30:24;29.00;66.00
6333;DHT22;3199;49.102;8.856;2022-07-29T08:32:50;29.40;65.70
6333;DHT22;3199;49.102;8.856;2022-07-29T08:35:18;29.50;64.20
6333;DHT22;3199;49.102;8.856;2022-07-29T08:37:44;29.70;64.70
6333;DHT22;3199;49.102;8.856;2022-07-29T08:40:10;29.90;64.00
6333;DHT22;3199;49.102;8.856;2022-07-29T08:42:36;29.90;63.50
6333;DHT22;3199;49.102;8.856;2022-07-29T08:45:03;29.70;64.30
6333;DHT22;3199;49.102;8.856;2022-07-29T08:47:29;29.60;64.90
6333;DHT22;3199;49.102;8.856;2022-07-29T08:49:55;29.90;65.70
6333;DHT22;3199;49.102;8.856;2022-07-29T08:52:21;30.30;65.30
6333;DHT22;3199;49.102;8.856;2022-07-29T08:54:48;30.60;65.20
6333;DHT22;3199;49.102;8.856;2022-07-29T08:57:14;30.90;64.50
6333;DHT22;3199;49.102;8.856;2022-07-29T08:59:42;31.40;63.20
6333;DHT22;3199;49.102;8.856;2022-07-29T09:02:19;31.60;61.50
6333;DHT22;3199;49.102;8.856;2022-07-29T09:04:44;31.50;61.90
6333;DHT22;3199;49.102;8.856;2022-07-29T09:07:15;31.80;61.50
6333;DHT22;3199;49.102;8.856;2022-07-29T09:09:41;31.80;61.80
6333;DHT22;3199;49.102;8.856;2022-07-29T09:12:07;32.00;60.40
6333;DHT22;3199;49.102;8.856;2022-07-29T09:14:33;32.50;60.80
6333;DHT22;3199;49.102;8.856;2022-07-29T09:16:59;32.80;59.10
6333;DHT22;3199;49.102;8.856;2022-07-29T09:19:33;33.00;58.10
6333;DHT22;3199;49.102;8.856;2022-07-29T09:22:01;32.70;58.20
6333;DHT22;3199;49.102;8.856;2022-07-29T09:27:02;32.40;58.20
6333;DHT22;3199;49.102;8.856;2022-07-29T09:29:27;32.70;58.60
6333;DHT22;3199;49.102;8.856;2022-07-29T09:31:54;32.70;57.60
6333;DHT22;3199;49.102;8.856;2022-07-29T09:34:25;32.50;57.30
6333;DHT22;3199;49.102;8.856;2022-07-29T09:36:53;31.50;58.80
6333;DHT22;3199;49.102;8.856;2022-07-29T09:39:39;31.00;59.90
6333;DHT22;3199;49.102;8.856;2022-07-29T09:42:11;30.30;60.70
6333;DHT22;3199;49.102;8.856;2022-07-29T09:44:57;30.30;62.70
6333;DHT22;3199;49.102;8.856;2022-07-29T09:47:41;30.40;61.70
6333;DHT22;3199;49.102;8.856;2022-07-29T09:50:07;31.10;61.40
6333;DHT22;3199;49.102;8.856;2022-07-29T09:52:48;31.80;59.20
6333;DHT22;3199;49.102;8.856;2022-07-29T09:55:14;32.50;58.30
6333;DHT22;3199;49.102;8.856;2022-07-29T09:57:40;32.90;57.50
6333;DHT22;3199;49.102;8.856;2022-07-29T10:00:14;32.60;56.40
6333;DHT22;3199;49.102;8.856;2022-07-29T10:02:42;32.30;56.80
6333;DHT22;3199;49.102;8.856;2022-07-29T10:05:22;31.90;57.60
6333;DHT22;3199;49.102;8.856;2022-07-29T10:07:56;31.50;58.30
6333;DHT22;3199;49.102;8.856;2022-07-29T10:10:29;31.50;58.70
6333;DHT22;3199;49.102;8.856;2022-07-29T10:12:59;31.60;58.90
6333;DHT22;3199;49.102;8.856;2022-07-29T10:15:27;31.60;57.20
6333;DHT22;3199;49.102;8.856;2022-07-29T10:17:54;31.60;57.90
6333;DHT22;3199;49.102;8.856;2022-07-29T10:20:22;31.80;57.20
6333;DHT22;3199;49.102;8.856;2022-07-29T10:22:49;31.90;55.80
6333;DHT22;3199;49.102;8.856;2022-07-29T10:25:16;31.80;54.90
6333;DHT22;3199;49.102;8.856;2022-07-29T10:27:43;31.80;55.30
6333;DHT22;3199;49.102;8.856;2022-07-29T10:30:10;31.80;55.90
6333;DHT22;3199;49.102;8.856;2022-07-29T10:35:20;32.30;55.40
6333;DHT22;3199;49.102;8.856;2022-07-29T10:41:32;32.70;55.00
6333;DHT22;3199;49.102;8.856;2022-07-29T10:46:28;33.30;54.10
6333;DHT22;3199;49.102;8.856;2022-07-29T10:49:13;33.50;53.30
6333;DHT22;3199;49.102;8.856;2022-07-29T10:52:03;33.60;52.60
6333;DHT22;3199;49.102;8.856;2022-07-29T10:54:39;34.20;52.40
6333;DHT22;3199;49.102;8.856;2022-07-29T10:57:16;34.70;52.10
6333;DHT22;3199;49.102;8.856;2022-07-29T10:59:44;34.40;50.30
6333;DHT22;3199;49.102;8.856;2022-07-29T11:07:23;34.30;49.70
6333;DHT22;3199;49.102;8.856;2022-07-29T11:15:20;34.30;48.50
6333;DHT22;3199;49.102;8.856;2022-07-29T11:23:24;34.10;48.80
6333;DHT22;3199;49.102;8.856;2022-07-29T11:26:19;34.10;47.70
6333;DHT22;3199;49.102;8.856;2022-07-29T11:29:01;34.30;48.50
6333;DHT22;3199;49.102;8.856;2022-07-29T11:31:42;34.60;48.10
6333;DHT22;3199;49.102;8.856;2022-07-29T11:34:25;34.80;47.30
6333;DHT22;3199;49.102;8.856;2022-07-29T11:39:36;35.20;46.20
6333;DHT22;3199;49.102;8.856;2022-07-29T11:47:23;35.60;45.90
6333;DHT22;3199;49.102;8.856;2022-07-29T11:49:53;35.90;45.30
6333;DHT22;3199;49.102;8.856;2022-07-29T11:52:20;36.00;45.60
6333;DHT22;3199;49.102;8.856;2022-07-29T11:54:51;35.90;45.30
6333;DHT22;3199;49.102;8.856;2022-07-29T11:57:19;35.60;45.70
6333;DHT22;3199;49.102;8.856;2022-07-29T11:59:47;35.70;45.20
6333;DHT22;3199;49.102;8.856;2022-07-29T12:02:13;35.60;45.20
6333;DHT22;3199;49.102;8.856;2022-07-29T12:04:58;35.60;46.00
6333;DHT22;3199;49.102;8.856;2022-07-29T12:07:32;35.40;45.40
6333;DHT22;3199;49.102;8.856;2022-07-29T12:09:58;34.90;45.30
6333;DHT22;3199;49.102;8.856;2022-07-29T12:12:24;34.50;46.30
6333;DHT22;3199;49.102;8.856;2022-07-29T12:14:49;34.50;46.30
6333;DHT22;3199;49.102;8.856;2022-07-29T12:17:32;34.80;46.20
6333;DHT22;3199;49.102;8.856;2022-07-29T12:20:02;34.80;45.30
6333;DHT22;3199;49.102;8.856;2022-07-29T12:22:30;34.90;45.50
6333;DHT22;3199;49.102;8.856;2022-07-29T12:25:05;34.90;45.00
6333;DHT22;3199;49.102;8.856;2022-07-29T12:27:31;35.00;44.90
6333;DHT22;3199;49.102;8.856;2022-07-29T12:30:04;34.80;45.50
6333;DHT22;3199;49.102;8.856;2022-07-29T12:32:34;34.50;44.40
6333;DHT22;3199;49.102;8.856;2022-07-29T12:35:03;34.10;45.50
6333;DHT22;3199;49.102;8.856;2022-07-29T12:37:30;33.70;45.60
6333;DHT22;3199;49.102;8.856;2022-07-29T12:39:55;33.10;45.90
6333;DHT22;3199;49.102;8.856;2022-07-29T12:42:21;32.80;47.20
6333;DHT22;3199;49.102;8.856;2022-07-29T12:44:48;32.70;48.10
6333;DHT22;3199;49.102;8.856;2022-07-29T12:47:14;32.70;47.60
6333;DHT22;3199;49.102;8.856;2022-07-29T12:49:40;32.60;47.70
6333;DHT22;3199;49.102;8.856;2022-07-29T12:52:28;32.50;48.30
6333;DHT22;3199;49.102;8.856;2022-07-29T12:54:54;32.30;48.90
6333;DHT22;3199;49.102;8.856;2022-07-29T12:57:20;32.10;49.30
6333;DHT22;3199;49.102;8.856;2022-07-29T12:59:59;31.70;48.90
6333;DHT22;3199;49.102;8.856;2022-07-29T13:02:25;31.40;49.00
6333;DHT22;3199;49.102;8.856;2022-07-29T13:04:58;31.10;50.20
6333;DHT22;3199;49.102;8.856;2022-07-29T13:07:26;31.00;50.40
6333;DHT22;3199;49.102;8.856;2022-07-29T13:09:52;31.00;51.00
6333;DHT22;3199;49.102;8.856;2022-07-29T13:12:18;30.90;51.50
6333;DHT22;3199;49.102;8.856;2022-07-29T13:14:47;30.90;51.40
6333;DHT22;3199;49.102;8.856;2022-07-29T13:17:16;31.00;51.60
6333;DHT22;3199;49.102;8.856;2022-07-29T13:19:42;30.90;51.60
6333;DHT22;3199;49.102;8.856;2022-07-29T13:22:16;30.80;51.70
6333;DHT22;3199;49.102;8.856;2022-07-29T13:24:56;30.90;51.90
6333;DHT22;3199;49.102;8.856;2022-07-29T13:27:24;30.90;52.50
6333;DHT22;3199;49.102;8.856;2022-07-29T13:29:51;30.80;52.40
6333;DHT22;3199;49.102;8.856;2022-07-29T13:32:20;30.80;53.20
6333;DHT22;3199;49.102;8.856;2022-07-29T13:34:46;30.90;52.80
6333;DHT22;3199;49.102;8.856;2022-07-29T13:37:12;31.00;52.50
6333;DHT22;3199;49.102;8.856;2022-07-29T13:39:37;31.10;52.40
6333;DHT22;3199;49.102;8.856;2022-07-29T13:42:04;31.10;52.30
6333;DHT22;3199;49.102;8.856;2022-07-29T13:44:30;31.10;51.60
6333;DHT22;3199;49.102;8.856;2022-07-29T13:46:55;31.00;52.20
6333;DHT22;3199;49.102;8.856;2022-07-29T13:49:21;31.00;51.90
6333;DHT22;3199;49.102;8.856;2022-07-29T13:51:49;31.00;52.50
6333;DHT22;3199;49.102;8.856;2022-07-29T13:54:15;31.10;52.40
6333;DHT22;3199;49.102;8.856;2022-07-29T13:56:40;31.10;52.30
6333;DHT22;3199;49.102;8.856;2022-07-29T13:59:06;31.10;52.40
6333;DHT22;3199;49.102;8.856;2022-07-29T14:01:34;30.90;52.30
6333;DHT22;3199;49.102;8.856;2022-07-29T14:04:00;30.80;52.30
6333;DHT22;3199;49.102;8.856;2022-07-29T14:06:26;30.70;52.30
6333;DHT22;3199;49.102;8.856;2022-07-29T14:08:51;30.60;52.90
6333;DHT22;3199;49.102;8.856;2022-07-29T14:11:17;30.70;52.50
6333;DHT22;3199;49.102;8.856;2022-07-29T14:13:42;30.80;52.40
6333;DHT22;3199;49.102;8.856;2022-07-29T14:16:08;30.80;52.20
6333;DHT22;3199;49.102;8.856;2022-07-29T14:18:33;30.80;52.60
6333;DHT22;3199;49.102;8.856;2022-07-29T14:20:59;30.70;52.00
6333;DHT22;3199;49.102;8.856;2022-07-29T14:23:24;30.70;52.10
6333;DHT22;3199;49.102;8.856;2022-07-29T14:25:50;30.70;51.10
6333;DHT22;3199;49.102;8.856;2022-07-29T14:28:16;30.70;50.30
6333;DHT22;3199;49.102;8.856;2022-07-29T14:30:42;30.50;50.10
6333;DHT22;3199;49.102;8.856;2022-07-29T14:33:07;30.40;50.00
6333;DHT22;3199;49.102;8.856;2022-07-29T14:35:33;30.30;50.00
6333;DHT22;3199;49.102;8.856;2022-07-29T14:37:58;30.20;49.90
6333;DHT22;3199;49.102;8.856;2022-07-29T14:40:24;30.20;50.40
6333;DHT22;3199;49.102;8.856;2022-07-29T14:42:51;30.20;50.50
6333;DHT22;3199;49.102;8.856;2022-07-29T14:45:16;30.10;50.40
6333;DHT22;3199;49.102;8.856;2022-07-29T14:47:42;30.10;50.60
6333;DHT22;3199;49.102;8.856;2022-07-29T14:50:09;30.00;49.80
6333;DHT22;3199;49.102;8.856;2022-07-29T14:52:34;29.90;49.40
6333;DHT22;3199;49.102;8.856;2022-07-29T14:55:00;29.90;49.50
6333;DHT22;3199;49.102;8.856;2022-07-29T14:57:25;29.90;49.70
6333;DHT22;3199;49.102;8.856;2022-07-29T14:59:52;29.90;49.20
6333;DHT22;3199;49.102;8.856;2022-07-29T15:02:17;30.00;48.90
6333;DHT22;3199;49.102;8.856;2022-07-29T15:04:43;30.00;48.90
6333;DHT22;3199;49.102;8.856;2022-07-29T15:07:09;29.90;48.80
6333;DHT22;3199;49.102;8.856;2022-07-29T15:09:35;29.80;48.50
6333;DHT22;3199;49.102;8.856;2022-07-29T15:12:00;29.80;49.00
6333;DHT22;3199;49.102;8.856;2022-07-29T15:14:27;29.80;49.00
6333;DHT22;3199;49.102;8.856;2022-07-29T15:16:53;29.70;48.90
6333;DHT22;3199;49.102;8.856;2022-07-29T15:19:19;29.60;48.20
6333;DHT22;3199;49.102;8.856;2022-07-29T15:21:44;29.50;48.30
6333;DHT22;3199;49.102;8.856;2022-07-29T15:24:10;29.30;48.00
6333;DHT22;3199;49.102;8.856;2022-07-29T15:26:35;29.30;48.60
6333;DHT22;3199;49.102;8.856;2022-07-29T15:29:01;29.20;49.10
6333;DHT22;3199;49.102;8.856;2022-07-29T15:31:26;29.20;48.60
6333;DHT22;3199;49.102;8.856;2022-07-29T15:33:52;29.10;48.80
6333;DHT22;3199;49.102;8.856;2022-07-29T15:36:17;29.10;49.20
6333;DHT22;3199;49.102;8.856;2022-07-29T15:38:43;29.00;48.30
6333;DHT22;3199;49.102;8.856;2022-07-29T15:41:13;29.00;48.20
6333;DHT22;3199;49.102;8.856;2022-07-29T15:43:43;29.10;48.00
6333;DHT22;3199;49.102;8.856;2022-07-29T15:46:08;29.10;48.30
6333;DHT22;3199;49.102;8.856;2022-07-29T15:48:52;29.10;47.90
6333;DHT22;3199;49.102;8.856;2022-07-29T15:51:18;29.20;48.20
6333;DHT22;3199;49.102;8.856;2022-07-29T15:53:43;29.30;48.70
6333;DHT22;3199;49.102;8.856;2022-07-29T15:56:09;29.30;48.30
6333;DHT22;3199;49.102;8.856;2022-07-29T15:58:35;29.20;47.70
6333;DHT22;3199;49.102;8.856;2022-07-29T16:01:00;29.30;47.40
6333;DHT22;3199;49.102;8.856;2022-07-29T16:03:26;29.30;47.80
6333;DHT22;3199;49.102;8.856;2022-07-29T16:05:51;29.40;47.10
6333;DHT22;3199;49.102;8.856;2022-07-29T16:08:17;29.40;46.90
6333;DHT22;3199;49.102;8.856;2022-07-29T16:10:42;29.40;46.50
6333;DHT22;3199;49.102;8.856;2022-07-29T16:13:08;29.30;46.30
6333;DHT22;3199;49.102;8.856;2022-07-29T16:15:33;29.30;46.80
6333;DHT22;3199;49.102;8.856;2022-07-29T16:17:59;29.20;47.00
6333;DHT22;3199;49.102;8.856;2022-07-29T16:20:25;29.20;47.00
6333;DHT22;3199;49.102;8.856;2022-07-29T16:22:50;29.20;44.80
6333;DHT22;3199;49.102;8.856;2022-07-29T16:25:16;29.10;44.90
6333;DHT22;3199;49.102;8.856;2022-07-29T16:27:41;29.10;45.50
6333;DHT22;3199;49.102;8.856;2022-07-29T16:30:07;29.00;45.70
6333;DHT22;3199;49.102;8.856;2022-07-29T16:32:35;28.90;45.20
6333;DHT22;3199;49.102;8.856;2022-07-29T16:35:01;28.90;45.30
6333;DHT22;3199;49.102;8.856;2022-07-29T16:37:29;28.90;45.50
6333;DHT22;3199;49.102;8.856;2022-07-29T16:39:58;28.90;45.60
6333;DHT22;3199;49.102;8.856;2022-07-29T16:42:23;28.90;45.40
6333;DHT22;3199;49.102;8.856;2022-07-29T16:44:49;28.90;45.80
6333;DHT22;3199;49.102;8.856;2022-07-29T16:47:14;28.80;45.70
6333;DHT22;3199;49.102;8.856;2022-07-29T16:49:40;28.80;45.90